createdAt,value
2022-09-02T00:02:43.653Z,52.15
2022-09-02T00:09:03.633Z,52.39
2022-09-02T00:15:26.557Z,51.97
2022-09-02T00:21:46.589Z,52.65
2022-09-02T00:28:09.560Z,52.85
2022-09-02T00:34:29.571Z,52.77
2022-09-02T00:40:52.675Z,53.46
2022-09-02T00:47:12.571Z,54.18
2022-09-02T00:53:35.559Z,54.27
2022-09-02T00:59:55.569Z,54.43
2022-09-02T01:06:18.561Z,55.07
2022-09-02T01:12:38.564Z,55.28
2022-09-02T01:19:01.558Z,55.48
2022-09-02T01:25:21.598Z,55.85
2022-09-02T01:31:44.618Z,55.76
2022-09-02T01:38:04.554Z,56.32
2022-09-02T01:44:27.591Z,56.53
2022-09-02T01:50:47.572Z,56.7
2022-09-02T01:57:10.590Z,57.07
2022-09-02T02:03:30.556Z,57.55
2022-09-02T02:09:53.593Z,57.36
2022-09-02T02:16:13.602Z,57.86
2022-09-02T02:22:36.583Z,57.79
2022-09-02T02:28:56.562Z,58.11
2022-09-02T02:35:19.617Z,58.55
2022-09-02T02:41:39.557Z,58.45
2022-09-02T02:48:02.580Z,58.23
2022-09-02T02:54:22.561Z,57.62
2022-09-02T03:00:45.558Z,57.99
2022-09-02T03:07:05.584Z,57.35
2022-09-02T03:13:29.313Z,56.9
2022-09-02T03:19:48.593Z,56.88
2022-09-02T03:26:11.561Z,56.87
2022-09-02T03:32:31.601Z,56.97
2022-09-02T03:38:54.586Z,57.15
2022-09-02T03:45:14.598Z,57.3
2022-09-02T04:08:01.576Z,58
2022-09-02T04:14:24.562Z,58.32
2022-09-02T04:20:44.567Z,58.56
2022-09-02T04:27:07.571Z,59.18
2022-09-02T04:33:27.556Z,58.99
2022-09-02T04:39:50.579Z,59.63
2022-09-02T04:46:10.649Z,59.12
2022-09-02T04:52:33.581Z,58.62
2022-09-02T04:58:53.564Z,59.31
2022-09-02T05:05:16.574Z,59.22
2022-09-02T05:11:36.605Z,59.05
2022-09-02T05:17:59.569Z,59.25
2022-09-02T05:24:22.159Z,59.45
2022-09-02T05:30:42.622Z,58.49
2022-09-02T05:37:02.574Z,58.66
2022-09-02T05:43:25.553Z,57.84
2022-09-02T05:49:45.576Z,57.86
2022-09-02T05:56:08.604Z,57.17
2022-09-02T06:02:28.659Z,58.45
2022-09-02T06:08:51.576Z,56.2
2022-09-02T06:15:11.560Z,56.38
2022-09-02T06:21:34.560Z,56.11
2022-09-02T06:27:54.582Z,56.44
2022-09-02T06:34:17.570Z,56.11
2022-09-02T06:40:37.692Z,55.08
2022-09-02T06:47:00.564Z,55.16
2022-09-02T06:53:20.583Z,54.23
2022-09-02T06:59:43.607Z,55.35
2022-09-02T07:06:03.561Z,53.71
2022-09-02T07:12:26.591Z,52.93
2022-09-02T07:18:46.570Z,53.02
2022-09-02T07:25:09.575Z,52.4
2022-09-02T07:31:29.579Z,52.1
2022-09-02T07:37:52.559Z,50.98
2022-09-02T07:44:12.570Z,50.76
2022-09-02T07:50:35.593Z,50.7
2022-09-02T07:56:55.582Z,50.53
2022-09-02T08:03:18.601Z,50.09
2022-09-02T08:09:38.558Z,49.92
2022-09-02T08:16:01.562Z,50.05
2022-09-02T08:22:21.625Z,49.42
2022-09-02T08:28:44.555Z,48.73
2022-09-02T08:35:04.594Z,47.85
2022-09-02T08:41:27.568Z,47.1
2022-09-02T08:47:47.580Z,46.05
2022-09-02T08:54:10.558Z,46.07
2022-09-02T09:00:30.564Z,46.35
2022-09-02T09:06:53.589Z,43.39
2022-09-02T09:13:13.563Z,43.98
2022-09-02T09:19:36.576Z,43.12
2022-09-02T09:25:56.574Z,40.93
2022-09-02T09:32:19.790Z,39.64
2022-09-02T09:48:10.579Z,37.25
2022-09-02T09:54:30.550Z,37.81
2022-09-02T10:00:53.607Z,35.37
2022-09-02T10:07:13.802Z,34.74
2022-09-02T10:13:36.557Z,33.84
2022-09-02T10:19:56.569Z,31.93
2022-09-02T10:26:19.597Z,32.36
2022-09-02T10:32:39.583Z,31.72
2022-09-02T10:39:02.554Z,30.97
2022-09-02T10:45:22.583Z,32.2
2022-09-02T10:51:45.567Z,32.75
2022-09-02T10:58:05.565Z,32.55
2022-09-02T11:04:29.743Z,31.25
2022-09-02T11:10:49.561Z,30.49
2022-09-02T11:17:13.570Z,31.8
2022-09-02T11:23:32.559Z,29.29
2022-09-02T11:29:55.584Z,30.53
2022-09-02T11:36:15.570Z,29.9
2022-09-02T11:42:38.564Z,28.12
2022-09-02T11:48:58.581Z,27.38
2022-09-02T11:55:21.560Z,27.48
2022-09-02T12:01:43.765Z,26.24
2022-09-02T12:08:04.994Z,26.5
2022-09-02T12:14:24.560Z,27.57
2022-09-02T12:20:50.696Z,26.07
2022-09-02T12:27:07.567Z,26.66
2022-09-02T12:33:30.585Z,28.29
2022-09-02T12:39:50.561Z,26.53
2022-09-02T12:46:13.635Z,26.51
2022-09-02T12:52:33.583Z,26.59
2022-09-02T12:59:00.326Z,25.6
2022-09-02T13:05:16.582Z,25.64
2022-09-02T13:11:39.570Z,24.23
2022-09-02T13:17:59.571Z,25.08
2022-09-02T13:24:22.577Z,25.11
2022-09-02T13:30:42.574Z,24.65
2022-09-02T13:37:05.586Z,24.69
2022-09-02T13:43:26.128Z,23.82
2022-09-02T13:49:48.567Z,24.65
2022-09-02T13:56:08.579Z,23.62
2022-09-02T14:02:31.684Z,23.5
2022-09-02T14:08:51.588Z,24.9
2022-09-02T14:15:14.572Z,25.34
2022-09-02T14:21:34.560Z,24.81
2022-09-02T14:27:57.587Z,24.85
2022-09-02T14:34:17.554Z,25.98
2022-09-02T14:40:40.582Z,25.98
2022-09-02T14:47:00.558Z,26.76
2022-09-02T14:53:23.568Z,26.45
2022-09-02T14:59:43.576Z,27.17
2022-09-02T15:06:06.567Z,27.01
2022-09-02T15:12:26.578Z,27.95
2022-09-02T15:18:49.562Z,28.07
2022-09-02T15:25:09.560Z,27.55
2022-09-02T15:31:32.631Z,27.44
2022-09-02T15:47:58.576Z,27.62
2022-09-02T15:54:21.587Z,28.3
2022-09-02T16:00:41.582Z,27.73
2022-09-02T16:07:04.573Z,26.71
2022-09-02T16:13:24.560Z,27.19
2022-09-02T16:19:47.581Z,27.8
2022-09-02T16:26:07.559Z,28.53
2022-09-02T16:32:30.580Z,27.92
2022-09-02T16:38:50.573Z,27.68
2022-09-02T16:45:13.562Z,28.18
2022-09-02T16:51:33.575Z,28.44
2022-09-02T16:57:56.562Z,28.47
2022-09-02T17:04:16.579Z,29.55
2022-09-02T17:10:39.576Z,29.65
2022-09-02T17:16:59.604Z,29.7
2022-09-02T17:23:22.588Z,29.66
2022-09-02T17:29:50.314Z,30.21
2022-09-02T17:36:05.562Z,30.37
2022-09-02T17:42:25.582Z,30.35
2022-09-02T17:49:05.994Z,30.9
2022-09-02T17:55:08.574Z,32
2022-09-02T18:01:31.589Z,32.25
2022-09-02T18:07:51.570Z,32.55
2022-09-02T18:14:14.580Z,33.07
2022-09-02T18:20:36.074Z,34.75
2022-09-02T18:26:57.576Z,35.24
2022-09-02T18:33:17.562Z,35.41
2022-09-02T18:39:40.608Z,36.47
2022-09-02T18:46:00.567Z,36.86
2022-09-02T18:52:23.559Z,37.65
2022-09-02T18:58:43.581Z,38.15
2022-09-02T19:05:06.594Z,38.54
2022-09-02T19:11:26.559Z,39.75
2022-09-02T19:17:49.593Z,40.13
2022-09-02T19:24:09.552Z,40.24
2022-09-02T19:30:32.584Z,40.5
2022-09-02T19:36:52.564Z,41.17
2022-09-02T19:43:15.547Z,41.3
2022-09-02T19:49:35.578Z,41.86
2022-09-02T19:55:58.562Z,42.14
2022-09-02T20:02:18.637Z,42.65
2022-09-02T20:08:41.575Z,43.38
2022-09-02T20:15:01.557Z,43.52
2022-09-02T20:21:24.582Z,44.24
2022-09-02T20:27:44.546Z,44.34
2022-09-02T20:34:07.569Z,44.75
2022-09-02T20:40:27.574Z,45.3
2022-09-02T20:46:50.608Z,45.53
2022-09-02T20:53:10.575Z,46.06
2022-09-02T20:59:33.867Z,46.67
2022-09-02T21:05:53.557Z,46.92
2022-09-02T21:12:16.583Z,47.05
2022-09-02T21:18:36.566Z,47.39
2022-09-02T21:24:59.587Z,47.84
2022-09-02T21:31:19.591Z,48.22
2022-09-02T21:48:17.470Z,49
2022-09-02T21:54:37.552Z,49.29
2022-09-02T22:20:11.578Z,49.4
2022-09-02T22:26:31.554Z,49.65
2022-09-02T22:32:54.592Z,49.86
2022-09-02T22:39:16.881Z,50.17
2022-09-02T22:45:37.601Z,50.62
2022-09-02T22:51:57.549Z,51.06
2022-09-02T22:58:20.560Z,50.85
2022-09-02T23:04:40.608Z,51.19
2022-09-02T23:11:03.570Z,51.5
2022-09-02T23:17:23.571Z,51.56
2022-09-02T23:23:46.571Z,52.19
2022-09-02T23:30:06.597Z,51.81
2022-09-02T23:36:29.569Z,51.84
2022-09-02T23:42:49.577Z,51.79
2022-09-02T23:49:12.582Z,52.23
2022-09-02T23:55:32.564Z,51.64
